Time;durP1;ratioP1;P1;durP2;ratioP2;P2;SDS_P1;SDS_P2;PMS_P1;PMS_P2;Temp;Humidity;BMP_temperature;BMP_pressure;BME280_temperature;BME280_humidity;BME280_pressure;Samples;Min_cycle;Max_cycle;Signal;HPM_P1;HPM_P2
2021/01/13 00:01:05;;;;;;;7.90;1.85;;;1.00;97.70;;;;;;4988669;28;20061;-83
2021/01/13 00:03:31;;;;;;;9.40;4.72;;;1.10;97.90;;;;;;5015049;28;20044;-83
2021/01/13 00:05:56;;;;;;;11.68;3.15;;;1.20;97.70;;;;;;5006900;28;20481;-84
2021/01/13 00:08:22;;;;;;;8.13;3.45;;;1.10;97.30;;;;;;5004276;28;20034;-83
2021/01/13 00:10:48;;;;;;;5.35;2.60;;;1.20;97.60;;;;;;5006026;27;20491;-86
2021/01/13 00:13:16;;;;;;;8.98;3.10;;;1.20;97.40;;;;;;4990936;28;20049;-83
2021/01/13 00:15:42;;;;;;;5.25;2.20;;;1.30;97.70;;;;;;5006515;27;20373;-81
2021/01/13 00:18:07;;;;;;;6.82;1.85;;;1.20;97.50;;;;;;4989821;28;20052;-83
2021/01/13 00:20:33;;;;;;;6.45;2.72;;;1.20;97.80;;;;;;5006477;27;20048;-83
2021/01/13 00:22:58;;;;;;;15.77;3.55;;;1.20;97.60;;;;;;4990398;28;20029;-82
2021/01/13 00:25:24;;;;;;;10.88;2.85;;;1.20;97.50;;;;;;4988357;28;20041;-81
2021/01/13 00:27:49;;;;;;;8.85;2.40;;;1.10;97.50;;;;;;4989614;27;20373;-81
2021/01/13 00:30:15;;;;;;;3.45;2.10;;;1.10;97.50;;;;;;4988210;28;20030;-82
2021/01/13 00:32:42;;;;;;;4.78;2.58;;;1.20;97.70;;;;;;4986960;27;20030;-81
2021/01/13 00:35:08;;;;;;;6.35;2.70;;;1.20;97.60;;;;;;5005803;28;20049;-82
2021/01/13 00:37:35;;;;;;;10.50;3.00;;;1.20;97.40;;;;;;4987327;28;20025;-81
2021/01/13 00:40:02;;;;;;;7.00;3.30;;;1.10;97.40;;;;;;4990649;28;20030;-81
2021/01/13 00:42:27;;;;;;;4.03;2.33;;;1.10;97.40;;;;;;4990121;28;20025;-83
2021/01/13 00:44:53;;;;;;;6.50;2.47;;;1.20;97.60;;;;;;5004872;27;20460;-82
2021/01/13 00:47:18;;;;;;;6.78;1.67;;;1.20;97.40;;;;;;4988659;28;20159;-82
2021/01/13 00:49:44;;;;;;;16.88;4.82;;;1.20;97.60;;;;;;4989535;27;20033;-83
2021/01/13 00:52:09;;;;;;;7.00;3.60;;;1.00;97.30;;;;;;5003873;28;20029;-83
2021/01/13 00:54:35;;;;;;;11.60;4.35;;;1.00;97.60;;;;;;5005426;28;20025;-82
2021/01/13 00:57:00;;;;;;;5.45;4.03;;;1.10;97.50;;;;;;5006913;28;20030;-83
2021/01/13 00:59:26;;;;;;;8.98;4.07;;;1.00;97.40;;;;;;4984868;28;20037;-82
2021/01/13 01:01:52;;;;;;;8.35;4.47;;;1.00;97.70;;;;;;4998950;28;20034;-81
2021/01/13 01:04:17;;;;;;;10.18;4.10;;;1.00;97.50;;;;;;4954570;27;20033;-82
2021/01/13 01:06:47;;;;;;;10.98;5.35;;;1.00;97.60;;;;;;5007556;28;20064;-82
2021/01/13 01:09:13;;;;;;;5.10;2.20;;;1.00;97.50;;;;;;4987221;28;20500;-83
2021/01/13 01:11:39;;;;;;;10.40;3.80;;;1.10;97.80;;;;;;4990270;28;20113;-84
2021/01/13 01:14:09;;;;;;;16.13;5.85;;;1.00;97.30;;;;;;5005583;28;20087;-83
2021/01/13 01:16:36;;;;;;;12.82;4.13;;;0.80;97.30;;;;;;4981816;28;20069;-82
2021/01/13 01:19:02;;;;;;;6.05;3.33;;;0.80;97.60;;;;;;4989718;28;20484;-83
2021/01/13 01:21:27;;;;;;;5.47;2.05;;;0.90;97.70;;;;;;5006185;28;20089;-83
2021/01/13 01:23:53;;;;;;;11.35;3.80;;;1.00;97.50;;;;;;5006124;28;20061;-84
2021/01/13 01:26:19;;;;;;;4.60;2.35;;;1.00;97.60;;;;;;4984602;28;20501;-82
2021/01/13 01:28:44;;;;;;;11.63;4.90;;;1.00;97.50;;;;;;5005847;28;20040;-84
2021/01/13 01:31:10;;;;;;;3.42;2.10;;;0.90;97.30;;;;;;5004301;28;20029;-83
2021/01/13 01:33:35;;;;;;;2.17;1.70;;;0.90;97.60;;;;;;4989439;27;20512;-84
2021/01/13 01:36:01;;;;;;;12.35;5.88;;;0.90;97.60;;;;;;4988865;28;20036;-82
2021/01/13 01:38:27;;;;;;;1.65;1.30;;;0.90;97.30;;;;;;4986740;28;20053;-82
2021/01/13 01:40:52;;;;;;;9.68;2.92;;;0.80;97.70;;;;;;4989858;28;20106;-82
2021/01/13 01:43:18;;;;;;;4.00;2.15;;;0.90;97.60;;;;;;5004544;28;20044;-82
2021/01/13 01:45:43;;;;;;;13.68;4.00;;;0.90;97.40;;;;;;5034963;28;20438;-83
2021/01/13 01:48:13;;;;;;;3.95;2.65;;;0.90;97.40;;;;;;4981990;28;20034;-83
2021/01/13 01:50:41;;;;;;;7.50;2.97;;;0.90;97.20;;;;;;5004722;28;20412;-83
2021/01/13 01:53:36;;;;;;;8.43;5.32;;;0.90;97.60;;;;;;4989113;28;20037;-82
2021/01/13 01:56:09;;;;;;;7.63;3.63;;;0.80;97.30;;;;;;4968241;27;20029;-82
2021/01/13 01:58:35;;;;;;;12.27;4.78;;;0.80;97.50;;;;;;5011059;28;20034;-82
2021/01/13 02:01:01;;;;;;;14.45;4.60;;;0.80;97.40;;;;;;4988274;28;20045;-82
2021/01/13 02:03:40;;;;;;;9.85;3.13;;;0.80;97.50;;;;;;4988868;28;20319;-82
2021/01/13 02:06:11;;;;;;;2.08;1.70;;;0.80;97.60;;;;;;5000602;28;20500;-81
2021/01/13 02:08:38;;;;;;;6.50;2.78;;;0.90;97.50;;;;;;5016157;27;20045;-80
2021/01/13 02:11:14;;;;;;;9.30;4.38;;;0.80;97.50;;;;;;5004809;28;20156;-82
2021/01/13 02:13:40;;;;;;;9.93;4.78;;;0.90;97.60;;;;;;5001272;28;20060;-82
2021/01/13 02:16:06;;;;;;;10.30;5.22;;;0.90;97.50;;;;;;5003777;27;20481;-81
2021/01/13 02:18:31;;;;;;;5.10;2.70;;;0.80;97.40;;;;;;5025217;28;20090;-80
2021/01/13 02:21:01;;;;;;;5.55;3.33;;;0.90;97.60;;;;;;4988292;28;20064;-82
2021/01/13 02:23:33;;;;;;;14.68;5.97;;;0.90;97.50;;;;;;5004663;28;20034;-82
2021/01/13 02:26:04;;;;;;;7.30;3.15;;;0.90;97.30;;;;;;5001894;28;20026;-81
2021/01/13 02:28:31;;;;;;;8.20;4.03;;;0.90;97.40;;;;;;5024837;27;20488;-80
2021/01/13 02:31:04;;;;;;;14.02;3.15;;;0.80;97.40;;;;;;5003609;27;20393;-82
2021/01/13 02:33:48;;;;;;;8.82;4.65;;;0.80;97.60;;;;;;5024623;28;20044;-82
2021/01/13 02:36:24;;;;;;;20.30;5.90;;;0.80;97.60;;;;;;4991084;28;20037;-82
2021/01/13 02:38:51;;;;;;;7.70;4.05;;;0.70;97.40;;;;;;5007211;28;20040;-82
2021/01/13 02:41:18;;;;;;;7.88;5.38;;;0.80;97.60;;;;;;4992104;28;20412;-82
2021/01/13 02:43:55;;;;;;;14.48;5.00;;;0.70;97.60;;;;;;5008159;28;20036;-83
2021/01/13 02:46:48;;;;;;;10.10;5.35;;;0.80;97.70;;;;;;5006122;27;20113;-82
2021/01/13 02:49:13;;;;;;;6.90;3.47;;;0.80;97.60;;;;;;5020049;27;20064;-82
2021/01/13 02:51:39;;;;;;;7.35;3.95;;;0.70;97.70;;;;;;4992336;27;20056;-82
2021/01/13 02:54:25;;;;;;;8.13;3.92;;;0.70;97.70;;;;;;5007277;28;20061;-82
2021/01/13 02:56:55;;;;;;;13.63;4.67;;;0.70;97.80;;;;;;5028802;28;20034;-85
2021/01/13 02:59:20;;;;;;;7.95;4.90;;;0.70;97.60;;;;;;4991948;28;20782;-82
2021/01/13 03:01:46;;;;;;;13.75;4.50;;;0.80;97.80;;;;;;4993338;28;20018;-84
2021/01/13 03:04:12;;;;;;;7.90;3.67;;;0.80;97.80;;;;;;5000153;28;20030;-83
2021/01/13 03:06:39;;;;;;;8.60;2.95;;;0.80;97.80;;;;;;5016279;28;20058;-85
2021/01/13 03:09:09;;;;;;;9.30;4.70;;;0.80;97.70;;;;;;5017007;28;20424;-84
2021/01/13 03:11:35;;;;;;;6.15;3.35;;;0.70;97.80;;;;;;5001969;28;20037;-84
2021/01/13 03:14:20;;;;;;;9.23;3.40;;;0.80;97.90;;;;;;5007751;28;20037;-85
2021/01/13 03:16:49;;;;;;;8.32;3.60;;;0.90;98.00;;;;;;4988284;28;20034;-85
2021/01/13 03:19:26;;;;;;;11.70;4.95;;;0.90;97.80;;;;;;4991266;28;20052;-82
2021/01/13 03:22:02;;;;;;;9.90;4.25;;;0.80;97.70;;;;;;4991521;28;20032;-85
2021/01/13 03:24:52;;;;;;;12.70;5.95;;;0.80;97.80;;;;;;4997926;28;20045;-85
2021/01/13 03:27:17;;;;;;;18.65;5.28;;;0.80;97.90;;;;;;4992608;28;20113;-84
2021/01/13 03:29:45;;;;;;;9.55;4.05;;;0.80;97.80;;;;;;5007759;28;20120;-84
2021/01/13 03:32:17;;;;;;;7.00;5.50;;;0.80;98.00;;;;;;5005426;28;20026;-84
2021/01/13 03:35:06;;;;;;;9.15;4.13;;;0.90;98.00;;;;;;4990853;28;20478;-85
2021/01/13 03:37:55;;;;;;;14.07;4.45;;;1.00;97.90;;;;;;4993089;28;20369;-85
2021/01/13 03:40:21;;;;;;;6.90;3.42;;;0.90;97.70;;;;;;5008093;28;20030;-82
2021/01/13 03:42:51;;;;;;;3.85;1.92;;;0.90;97.80;;;;;;5038848;28;20145;-83
2021/01/13 03:45:24;;;;;;;7.82;3.55;;;1.00;97.90;;;;;;5007276;28;20492;-82
2021/01/13 03:48:11;;;;;;;7.55;4.15;;;1.00;97.80;;;;;;5003659;28;20469;-82
2021/01/13 03:50:38;;;;;;;15.70;4.55;;;1.00;97.70;;;;;;5000621;28;20034;-83
2021/01/13 03:53:14;;;;;;;6.70;2.85;;;1.10;97.70;;;;;;4991980;28;20777;-82
2021/01/13 03:55:41;;;;;;;2.65;2.08;;;1.10;97.70;;;;;;5014758;28;20034;-82
2021/01/13 03:58:36;;;;;;;10.25;3.67;;;1.10;97.60;;;;;;4991387;28;20761;-82
2021/01/13 04:01:23;;;;;;;10.30;3.97;;;0.90;97.60;;;;;;5007604;28;20018;-82
2021/01/13 04:03:59;;;;;;;11.80;4.30;;;1.10;97.60;;;;;;5022771;28;20025;-82
2021/01/13 04:06:25;;;;;;;8.73;2.67;;;1.00;97.70;;;;;;5004800;28;20034;-83
2021/01/13 04:08:50;;;;;;;5.50;3.28;;;1.00;97.60;;;;;;5027497;28;20030;-82
2021/01/13 04:11:20;;;;;;;13.27;6.40;;;0.90;97.70;;;;;;4993670;28;20044;-84
2021/01/13 04:13:48;;;;;;;11.98;5.53;;;0.90;97.80;;;;;;5004716;28;20505;-83
2021/01/13 04:16:15;;;;;;;10.93;3.67;;;0.90;97.80;;;;;;4991511;28;20036;-83
2021/01/13 04:18:41;;;;;;;10.00;5.65;;;0.80;97.70;;;;;;5023641;27;20048;-83
2021/01/13 04:21:08;;;;;;;14.05;4.65;;;0.80;97.70;;;;;;5007862;27;20083;-82
2021/01/13 04:23:34;;;;;;;19.05;8.85;;;0.90;97.80;;;;;;5022661;27;20055;-84
2021/01/13 04:25:59;;;;;;;9.82;4.88;;;0.80;97.70;;;;;;5023771;28;20049;-83
2021/01/13 04:28:26;;;;;;;4.97;3.25;;;0.80;97.80;;;;;;4992615;27;20025;-84
2021/01/13 04:30:53;;;;;;;8.77;4.38;;;0.80;97.90;;;;;;5004160;28;20026;-83
2021/01/13 04:33:19;;;;;;;16.95;6.75;;;0.80;97.70;;;;;;5007340;28;20033;-84
2021/01/13 04:35:45;;;;;;;8.07;4.28;;;0.80;97.80;;;;;;4995194;28;20086;-83
2021/01/13 04:38:10;;;;;;;11.75;4.25;;;0.80;97.90;;;;;;4988615;28;20038;-83
2021/01/13 04:40:39;;;;;;;12.48;5.45;;;0.80;98.00;;;;;;4994515;28;20033;-84
2021/01/13 04:43:11;;;;;;;7.93;4.50;;;0.90;98.00;;;;;;4993077;28;20040;-83
2021/01/13 04:45:46;;;;;;;6.57;3.20;;;0.90;97.90;;;;;;4999657;28;20033;-83
2021/01/13 04:48:21;;;;;;;9.02;4.82;;;0.90;97.90;;;;;;4990458;27;20029;-82
2021/01/13 04:50:50;;;;;;;13.88;5.32;;;0.90;98.00;;;;;;5006597;28;20052;-82
2021/01/13 04:53:22;;;;;;;6.97;3.25;;;0.90;98.00;;;;;;4987549;28;20081;-82
2021/01/13 04:55:55;;;;;;;6.93;4.70;;;0.90;97.80;;;;;;4997557;28;20483;-82
2021/01/13 04:58:20;;;;;;;13.13;6.68;;;0.90;97.90;;;;;;5008915;28;20064;-83
2021/01/13 05:01:07;;;;;;;12.00;4.03;;;0.90;97.90;;;;;;5026849;27;20033;-82
2021/01/13 05:03:40;;;;;;;13.07;8.57;;;1.00;98.00;;;;;;5024476;27;20075;-84
2021/01/13 05:06:31;;;;;;;9.10;5.20;;;0.90;97.90;;;;;;4988104;28;20042;-82
2021/01/13 05:09:09;;;;;;;14.02;5.55;;;0.90;97.80;;;;;;5015475;28;20030;-82
2021/01/13 05:11:44;;;;;;;12.80;6.68;;;0.90;98.00;;;;;;5022734;27;20117;-82
2021/01/13 05:14:10;;;;;;;15.48;7.93;;;0.90;98.10;;;;;;5003496;27;20552;-81
2021/01/13 05:16:51;;;;;;;13.80;6.22;;;0.90;98.10;;;;;;5036799;28;20041;-82
2021/01/13 05:19:29;;;;;;;17.10;7.93;;;0.90;98.10;;;;;;4668797;28;10000133;-81
2021/01/13 05:21:59;;;;;;;9.68;4.00;;;0.90;98.10;;;;;;5014762;28;20061;-82
2021/01/13 05:24:25;;;;;;;6.07;2.75;;;1.00;98.00;;;;;;5012392;28;20421;-81
2021/01/13 05:27:01;;;;;;;9.75;4.25;;;0.90;98.20;;;;;;5007062;28;20041;-82
2021/01/13 05:29:27;;;;;;;9.77;5.57;;;1.00;98.30;;;;;;5074188;28;20052;-82
2021/01/13 05:31:54;;;;;;;16.23;8.02;;;1.00;98.30;;;;;;5021638;28;20472;-82
2021/01/13 05:34:19;;;;;;;4.82;3.75;;;1.00;98.30;;;;;;4984472;28;20117;-83
2021/01/13 05:37:10;;;;;;;10.38;4.75;;;1.10;98.20;;;;;;5002748;28;20112;-83
2021/01/13 05:39:39;;;;;;;11.18;6.25;;;1.10;98.30;;;;;;5047612;27;20064;-82
2021/01/13 05:42:05;;;;;;;13.25;6.20;;;1.00;98.30;;;;;;4996247;28;20049;-82
2021/01/13 05:44:30;;;;;;;9.52;5.38;;;1.10;98.50;;;;;;5010049;28;20026;-82
2021/01/13 05:47:04;;;;;;;14.23;7.82;;;1.10;98.30;;;;;;4987429;28;20408;-82
2021/01/13 05:49:29;;;;;;;11.32;6.72;;;1.10;98.30;;;;;;5014665;27;20029;-83
2021/01/13 05:52:08;;;;;;;18.55;8.80;;;1.20;98.40;;;;;;5020024;28;20022;-83
2021/01/13 05:54:35;;;;;;;21.63;5.72;;;1.20;98.30;;;;;;5004181;28;20034;-83
2021/01/13 05:57:01;;;;;;;12.38;4.15;;;1.20;98.20;;;;;;5007359;28;20556;-82
2021/01/13 05:59:30;;;;;;;21.75;9.82;;;1.30;98.30;;;;;;4999534;28;20113;-84
2021/01/13 06:02:05;;;;;;;21.08;8.88;;;1.30;98.50;;;;;;4993481;27;20037;-84
2021/01/13 06:04:30;;;;;;;15.40;6.38;;;1.30;98.30;;;;;;5071150;28;20029;-84
2021/01/13 06:07:05;;;;;;;21.60;10.30;;;1.20;98.50;;;;;;4994977;28;20045;-84
2021/01/13 06:09:31;;;;;;;16.10;8.07;;;1.30;98.50;;;;;;5005545;27;20029;-83
2021/01/13 06:11:57;;;;;;;18.80;7.90;;;1.20;98.60;;;;;;5005997;27;20544;-83
2021/01/13 06:14:27;;;;;;;14.15;8.15;;;1.30;98.60;;;;;;5024699;27;20164;-83
2021/01/13 06:16:53;;;;;;;22.20;9.10;;;1.30;98.60;;;;;;5006965;28;20112;-82
2021/01/13 06:19:19;;;;;;;9.18;5.32;;;1.40;98.50;;;;;;5019869;28;20090;-84
2021/01/13 06:21:45;;;;;;;25.60;10.02;;;1.50;98.50;;;;;;5016189;28;20481;-84
2021/01/13 06:24:11;;;;;;;23.95;9.98;;;1.50;98.40;;;;;;5013493;27;20085;-84
2021/01/13 06:26:54;;;;;;;8.82;6.22;;;1.60;98.30;;;;;;5017583;27;20029;-84
2021/01/13 06:29:39;;;;;;;7.00;3.63;;;1.60;98.20;;;;;;5005456;28;20025;-83
2021/01/13 06:32:18;;;;;;;19.17;8.98;;;1.60;98.20;;;;;;5011878;28;20044;-83
2021/01/13 06:34:54;;;;;;;8.93;5.15;;;1.60;98.40;;;;;;5020010;28;20056;-84
2021/01/13 06:37:43;;;;;;;11.10;6.53;;;1.60;98.50;;;;;;5019271;28;20106;-84
2021/01/13 06:40:13;;;;;;;12.57;6.93;;;1.70;98.40;;;;;;5023551;28;20423;-85
2021/01/13 06:42:39;;;;;;;17.52;9.32;;;1.70;98.40;;;;;;5024589;27;20434;-83
2021/01/13 06:45:06;;;;;;;11.80;7.13;;;1.60;98.50;;;;;;5002108;28;20026;-83
2021/01/13 06:47:32;;;;;;;11.77;7.80;;;1.70;98.50;;;;;;5001479;28;20022;-83
2021/01/13 06:49:57;;;;;;;14.02;6.25;;;1.70;98.40;;;;;;4995035;27;20025;-84
2021/01/13 06:52:32;;;;;;;13.98;6.88;;;1.70;98.60;;;;;;5012074;28;20051;-84
2021/01/13 06:54:59;;;;;;;15.10;6.93;;;1.70;98.50;;;;;;5000921;28;20050;-84
2021/01/13 06:57:26;;;;;;;15.13;7.35;;;1.80;98.40;;;;;;5009745;28;20587;-84
2021/01/13 06:59:52;;;;;;;7.35;4.53;;;1.80;98.40;;;;;;5003944;28;20043;-84
2021/01/13 07:02:27;;;;;;;15.13;8.73;;;1.80;98.30;;;;;;5005269;28;20038;-84
2021/01/13 07:04:52;;;;;;;11.73;7.18;;;1.80;98.40;;;;;;4999045;28;20027;-84
2021/01/13 07:07:18;;;;;;;19.85;10.45;;;1.70;98.50;;;;;;5006297;28;20030;-84
2021/01/13 07:09:45;;;;;;;16.85;7.57;;;1.70;98.60;;;;;;5012767;27;20034;-84
2021/01/13 07:12:13;;;;;;;19.13;10.10;;;1.70;98.50;;;;;;5005717;28;20505;-85
2021/01/13 07:14:41;;;;;;;12.48;6.63;;;1.70;98.30;;;;;;5024597;27;20033;-84
2021/01/13 07:17:07;;;;;;;23.80;8.27;;;1.70;98.60;;;;;;5017043;28;20037;-83
2021/01/13 07:19:34;;;;;;;15.32;7.43;;;1.70;98.60;;;;;;5044946;28;20037;-84
2021/01/13 07:21:59;;;;;;;18.42;9.70;;;1.60;98.50;;;;;;5025691;28;20037;-84
2021/01/13 07:24:27;;;;;;;24.83;12.57;;;1.60;98.60;;;;;;5008012;28;20097;-83
2021/01/13 07:26:53;;;;;;;25.60;12.63;;;1.60;98.50;;;;;;5004531;28;20048;-85
2021/01/13 07:29:19;;;;;;;18.00;7.07;;;1.60;98.50;;;;;;4994943;28;20116;-83
2021/01/13 07:31:44;;;;;;;10.00;4.97;;;1.60;98.70;;;;;;5037032;27;20445;-84
2021/01/13 07:34:29;;;;;;;15.77;6.68;;;1.50;98.60;;;;;;5024186;28;20034;-83
2021/01/13 07:37:01;;;;;;;15.85;7.38;;;1.50;98.60;;;;;;4997533;28;20117;-83
2021/01/13 07:40:02;;;;;;;20.90;9.80;;;1.60;98.60;;;;;;5009213;28;20045;-83
2021/01/13 07:42:33;;;;;;;19.85;9.65;;;1.50;98.10;;;;;;5024760;28;20485;-83
2021/01/13 07:45:11;;;;;;;7.15;5.35;;;1.50;98.60;;;;;;5036400;28;20057;-83
2021/01/13 07:48:14;;;;;;;24.13;7.85;;;1.50;98.70;;;;;;5009629;28;20053;-83
2021/01/13 07:50:41;;;;;;;30.85;12.35;;;1.50;98.70;;;;;;5020706;28;20158;-83
2021/01/13 07:53:10;;;;;;;13.55;8.35;;;1.40;98.30;;;;;;4991527;28;20044;-83
2021/01/13 07:55:43;;;;;;;13.40;7.38;;;1.40;98.50;;;;;;5020543;28;20101;-83
2021/01/13 07:58:22;;;;;;;13.88;7.22;;;1.40;98.70;;;;;;5008733;27;20602;-84
2021/01/13 08:01:36;;;;;;;27.48;12.35;;;1.40;98.70;;;;;;4993826;28;20026;-84
2021/01/13 08:04:37;;;;;;;23.27;9.68;;;1.50;98.60;;;;;;5008105;28;20082;-83
2021/01/13 08:07:02;;;;;;;7.03;4.00;;;1.50;98.60;;;;;;5007949;28;20330;-83
2021/01/13 08:09:33;;;;;;;10.20;5.82;;;1.50;98.70;;;;;;4987949;28;20022;-83
2021/01/13 08:12:09;;;;;;;22.42;10.00;;;1.40;98.70;;;;;;5001601;28;20030;-83
2021/01/13 08:14:43;;;;;;;;;;;1.50;98.70;;;;;;5017652;27;20025;-83
2021/01/13 08:17:17;;;;;;;15.65;8.23;;;1.50;98.70;;;;;;5022457;28;19913;-84
2021/01/13 08:20:22;;;;;;;21.33;6.55;;;1.60;98.90;;;;;;5014609;28;20029;-84
2021/01/13 08:23:07;;;;;;;20.83;8.95;;;1.60;98.80;;;;;;5030045;28;20030;-83
2021/01/13 08:25:32;;;;;;;15.30;8.05;;;1.50;98.60;;;;;;4995791;28;20500;-84
2021/01/13 08:27:58;;;;;;;21.77;8.70;;;1.60;98.80;;;;;;5006826;28;20032;-84
2021/01/13 08:30:29;;;;;;;27.73;11.52;;;1.70;98.80;;;;;;4991517;28;20033;-84
2021/01/13 08:32:55;;;;;;;4.85;3.70;;;1.60;98.70;;;;;;4990703;28;20041;-84
2021/01/13 08:35:35;;;;;;;11.95;7.03;;;1.70;98.90;;;;;;4988288;28;20034;-82
2021/01/13 08:38:10;;;;;;;15.77;6.35;;;1.80;98.80;;;;;;4996998;28;20041;-83
2021/01/13 08:40:39;;;;;;;9.40;5.63;;;1.80;98.80;;;;;;5005115;28;20108;-85
2021/01/13 08:43:14;;;;;;;9.07;4.72;;;1.80;98.80;;;;;;5005409;28;20512;-83
2021/01/13 08:45:42;;;;;;;8.25;5.50;;;1.90;98.80;;;;;;5013702;28;20018;-83
2021/01/13 08:48:10;;;;;;;14.50;7.43;;;2.00;98.80;;;;;;4990283;28;20037;-84
2021/01/13 08:50:35;;;;;;;11.50;6.05;;;1.90;98.80;;;;;;5007110;27;20501;-83
2021/01/13 08:53:02;;;;;;;14.60;6.07;;;2.00;98.90;;;;;;5008444;27;20116;-83
2021/01/13 08:55:28;;;;;;;7.35;5.43;;;2.10;99.00;;;;;;5003461;28;20193;-83
2021/01/13 08:58:10;;;;;;;13.13;6.97;;;2.10;98.80;;;;;;5040290;28;20034;-83
2021/01/13 09:00:36;;;;;;;7.20;5.50;;;2.10;98.90;;;;;;4985647;28;20107;-82
2021/01/13 09:03:02;;;;;;;8.88;4.65;;;2.10;98.70;;;;;;4986189;28;20026;-85
2021/01/13 09:05:29;;;;;;;18.48;5.78;;;2.10;98.70;;;;;;5016264;27;20132;-85
2021/01/13 09:07:54;;;;;;;16.73;10.02;;;2.10;98.70;;;;;;4991205;28;20481;-84
2021/01/13 09:10:20;;;;;;;12.30;6.72;;;2.10;98.60;;;;;;4990344;28;20080;-83
2021/01/13 09:12:46;;;;;;;11.40;4.65;;;2.10;98.80;;;;;;5005538;27;20556;-84
2021/01/13 09:15:12;;;;;;;12.32;6.32;;;2.10;98.80;;;;;;5007675;28;20033;-83
2021/01/13 09:17:42;;;;;;;11.07;5.78;;;2.20;98.90;;;;;;5024727;28;20029;-84
2021/01/13 09:20:13;;;;;;;21.08;11.18;;;2.20;98.90;;;;;;4990009;28;20485;-84
2021/01/13 09:22:45;;;;;;;11.32;6.38;;;2.30;99.00;;;;;;5028514;28;20460;-84
2021/01/13 09:25:24;;;;;;;9.98;6.15;;;2.40;98.90;;;;;;5006314;28;20068;-83
2021/01/13 09:27:50;;;;;;;17.20;9.55;;;2.40;98.80;;;;;;5006408;27;20416;-85
2021/01/13 09:30:27;;;;;;;30.08;11.93;;;2.40;98.80;;;;;;5002706;28;20389;-84
2021/01/13 09:32:54;;;;;;;10.10;4.82;;;2.30;98.60;;;;;;5007588;28;20140;-84
2021/01/13 09:35:31;;;;;;;17.77;7.25;;;2.40;98.90;;;;;;5002176;28;20109;-86
2021/01/13 09:38:08;;;;;;;9.10;5.35;;;2.40;98.90;;;;;;4999408;28;20065;-85
2021/01/13 09:40:54;;;;;;;12.63;4.30;;;2.40;98.80;;;;;;4990075;28;20055;-86
2021/01/13 09:43:29;;;;;;;;;;;2.50;98.60;;;;;;5006296;28;20124;-84
2021/01/13 09:45:57;;;;;;;25.67;9.32;;;2.50;98.70;;;;;;5022939;28;19913;-84
2021/01/13 09:48:23;;;;;;;45.92;9.68;;;2.60;99.10;;;;;;5005967;28;20022;-83
2021/01/13 09:51:00;;;;;;;24.20;12.10;;;2.70;98.90;;;;;;5004553;27;20090;-83
2021/01/13 09:53:30;;;;;;;13.82;7.10;;;2.70;98.90;;;;;;5004838;28;20032;-83
2021/01/13 09:56:07;;;;;;;25.70;9.15;;;2.80;99.00;;;;;;5028494;28;20377;-83
2021/01/13 09:58:40;;;;;;;21.75;9.02;;;2.80;98.80;;;;;;5006259;27;20419;-83
2021/01/13 10:01:13;;;;;;;11.88;5.65;;;2.80;98.90;;;;;;5020002;28;20068;-83
2021/01/13 10:03:43;;;;;;;14.20;5.70;;;2.80;98.60;;;;;;5023139;27;20040;-83
2021/01/13 10:06:28;;;;;;;14.45;6.55;;;2.90;98.60;;;;;;5005496;28;20417;-84
2021/01/13 10:08:55;;;;;;;10.88;5.32;;;2.90;98.40;;;;;;5006315;28;20034;-84
2021/01/13 10:11:23;;;;;;;22.40;12.55;;;3.00;98.60;;;;;;4990081;28;20042;-84
2021/01/13 10:13:59;;;;;;;22.75;11.23;;;3.00;98.80;;;;;;5004959;27;20102;-83
2021/01/13 10:16:25;;;;;;;22.25;9.80;;;3.00;98.90;;;;;;4989583;28;20049;-84
2021/01/13 10:18:52;;;;;;;27.08;11.35;;;3.00;98.60;;;;;;5001365;28;20120;-83
2021/01/13 10:21:18;;;;;;;13.05;7.22;;;3.10;98.60;;;;;;5004443;28;20464;-82
2021/01/13 10:23:44;;;;;;;12.23;7.60;;;3.10;98.50;;;;;;5022399;27;20032;-82
2021/01/13 10:26:11;;;;;;;16.33;8.10;;;3.10;98.50;;;;;;4990022;28;20037;-83
2021/01/13 10:28:37;;;;;;;19.45;9.23;;;3.20;98.40;;;;;;5005005;28;20112;-85
2021/01/13 10:31:03;;;;;;;10.05;3.97;;;3.20;98.50;;;;;;4990399;28;20512;-85
2021/01/13 10:33:41;;;;;;;9.68;5.80;;;3.20;98.10;;;;;;4990677;28;20034;-84
2021/01/13 10:36:07;;;;;;;19.10;9.30;;;3.30;98.50;;;;;;5003862;28;20037;-85
2021/01/13 10:38:33;;;;;;;19.83;10.27;;;3.30;98.80;;;;;;5023473;27;20045;-85
2021/01/13 10:40:58;;;;;;;18.98;10.50;;;3.40;98.40;;;;;;5028358;28;20048;-83
2021/01/13 10:43:24;;;;;;;14.20;6.68;;;3.50;98.40;;;;;;4985870;28;20133;-84
2021/01/13 10:45:59;;;;;;;18.20;11.50;;;3.50;98.60;;;;;;5005058;28;20082;-85
2021/01/13 10:48:25;;;;;;;27.75;13.32;;;3.60;98.50;;;;;;4989955;28;20042;-86
2021/01/13 10:50:50;;;;;;;26.75;12.93;;;3.70;98.80;;;;;;5052495;28;20047;-84
2021/01/13 10:53:17;;;;;;;29.90;14.10;;;3.80;98.20;;;;;;4991508;28;20606;-84
2021/01/13 10:55:46;;;;;;;12.57;7.75;;;3.80;98.30;;;;;;4999637;27;20558;-83
2021/01/13 10:58:12;;;;;;;27.70;12.35;;;3.80;98.10;;;;;;5010283;28;20424;-83
2021/01/13 11:00:38;;;;;;;22.58;7.07;;;3.80;98.20;;;;;;4990343;28;20025;-84
2021/01/13 11:03:04;;;;;;;34.85;16.38;;;3.90;98.10;;;;;;4991857;28;20040;-84
2021/01/13 11:05:34;;;;;;;27.67;13.60;;;3.90;98.10;;;;;;5010129;28;20033;-84
2021/01/13 11:08:00;;;;;;;26.88;12.48;;;4.00;97.70;;;;;;4990767;28;20017;-85
2021/01/13 11:10:25;;;;;;;25.40;13.48;;;4.00;99.20;;;;;;4994719;28;20431;-84
2021/01/13 11:13:04;;;;;;;35.53;17.25;;;4.00;97.90;;;;;;4992188;28;20120;-85
2021/01/13 11:15:31;;;;;;;27.08;12.10;;;3.90;98.00;;;;;;5008856;28;20029;-85
2021/01/13 11:17:57;;;;;;;25.30;14.45;;;4.00;98.30;;;;;;5003461;28;20037;-85
2021/01/13 11:20:33;;;;;;;26.45;13.57;;;4.00;98.00;;;;;;4992751;28;20026;-85
2021/01/13 11:23:01;;;;;;;12.75;8.13;;;4.00;97.80;;;;;;4992381;28;20503;-83
2021/01/13 11:25:37;;;;;;;18.98;11.30;;;4.00;97.90;;;;;;4985321;28;20095;-84
2021/01/13 11:28:07;;;;;;;19.05;9.65;;;4.00;97.60;;;;;;5017313;28;20055;-83
2021/01/13 11:30:36;;;;;;;16.85;8.05;;;4.00;97.50;;;;;;4992031;27;20038;-83
2021/01/13 11:33:03;;;;;;;13.13;8.80;;;4.00;97.50;;;;;;5000517;28;20029;-84
2021/01/13 11:35:32;;;;;;;10.82;6.85;;;4.00;97.80;;;;;;5018501;28;20563;-85
2021/01/13 11:38:33;;;;;;;24.00;13.27;;;4.10;97.60;;;;;;5006683;28;20165;-84
2021/01/13 11:41:17;;;;;;;25.02;13.20;;;4.20;98.60;;;;;;5024238;28;20030;-84
2021/01/13 11:43:49;;;;;;;24.38;12.18;;;4.20;97.40;;;;;;5019832;27;20488;-85
2021/01/13 11:46:26;;;;;;;18.13;11.55;;;4.20;97.70;;;;;;5023547;28;20396;-85
2021/01/13 11:49:21;;;;;;;19.90;9.98;;;4.20;98.00;;;;;;4992906;27;20459;-85
2021/01/13 11:51:52;;;;;;;24.05;14.43;;;4.30;97.20;;;;;;5022277;27;20125;-83
2021/01/13 11:54:24;;;;;;;9.32;5.93;;;4.30;97.70;;;;;;4991618;28;20086;-84
2021/01/13 11:56:49;;;;;;;17.58;9.65;;;4.40;97.40;;;;;;5037505;27;20056;-85
2021/01/13 11:59:30;;;;;;;21.23;11.75;;;4.40;97.40;;;;;;4998683;28;20404;-82
2021/01/13 12:01:59;;;;;;;14.50;8.63;;;4.40;97.40;;;;;;5029202;28;20033;-84
2021/01/13 12:04:25;;;;;;;21.50;9.88;;;4.50;98.50;;;;;;5027266;28;20038;-85
2021/01/13 12:06:59;;;;;;;19.88;9.73;;;4.60;97.40;;;;;;5027196;27;20026;-86
2021/01/13 12:09:26;;;;;;;16.92;8.23;;;4.50;98.30;;;;;;5007729;28;20409;-85
2021/01/13 12:11:51;;;;;;;12.23;6.75;;;4.70;97.50;;;;;;4990121;28;20038;-83
2021/01/13 12:14:17;;;;;;;15.63;8.18;;;4.70;98.10;;;;;;4987767;28;20076;-85
2021/01/13 12:16:43;;;;;;;28.92;12.35;;;4.60;97.80;;;;;;5001863;27;20481;-83
2021/01/13 12:19:08;;;;;;;19.52;10.93;;;4.40;96.60;;;;;;4990841;28;20398;-84
2021/01/13 12:21:34;;;;;;;17.67;9.48;;;4.50;97.90;;;;;;4990055;28;20052;-82
2021/01/13 12:24:13;;;;;;;18.70;11.38;;;4.60;97.10;;;;;;4987374;28;20037;-83
2021/01/13 12:26:39;;;;;;;19.05;8.88;;;4.70;99.10;;;;;;4984810;28;20038;-83
2021/01/13 12:29:04;;;;;;;17.08;7.45;;;4.70;97.60;;;;;;5009313;28;20034;-84
2021/01/13 12:31:40;;;;;;;18.85;10.57;;;4.60;97.80;;;;;;5044466;27;20086;-85
2021/01/13 12:34:17;;;;;;;12.98;7.60;;;4.70;98.00;;;;;;5013281;28;20042;-85
2021/01/13 12:36:44;;;;;;;17.35;9.32;;;4.70;97.00;;;;;;5045503;28;20807;-85
2021/01/13 12:39:35;;;;;;;19.63;9.93;;;4.50;96.20;;;;;;4990355;27;20572;-84
2021/01/13 12:42:02;;;;;;;18.38;9.75;;;4.50;96.30;;;;;;5015912;28;20030;-84
2021/01/13 12:44:27;;;;;;;19.15;9.82;;;4.50;96.20;;;;;;5028561;28;20025;-83
2021/01/13 12:47:03;;;;;;;14.90;8.70;;;4.60;97.30;;;;;;5024119;28;20484;-83
2021/01/13 12:49:28;;;;;;;14.43;7.80;;;4.80;97.80;;;;;;4990098;28;20098;-83
2021/01/13 12:51:55;;;;;;;20.10;10.68;;;4.70;97.50;;;;;;4998595;28;20276;-84
2021/01/13 12:54:20;;;;;;;20.75;10.60;;;4.70;97.40;;;;;;4991299;27;20384;-84
2021/01/13 12:56:46;;;;;;;19.67;10.43;;;4.60;96.20;;;;;;5009996;28;20038;-84
2021/01/13 12:59:12;;;;;;;28.77;15.02;;;4.60;97.40;;;;;;5006038;27;20545;-84
2021/01/13 13:01:49;;;;;;;17.33;10.55;;;4.70;96.70;;;;;;5003554;28;20113;-84
2021/01/13 13:04:15;;;;;;;28.05;12.35;;;4.80;96.10;;;;;;5008524;27;20435;-83
2021/01/13 13:06:41;;;;;;;20.40;7.85;;;4.60;96.80;;;;;;4991209;28;20033;-84